Flight Track Log - Related Links

Times and Time Zones

All times are in EDT time to prevent confusion due to time zone crossing. See the FDX806 flight status page for this flight to view local times or setup timezone preferences in your user account.

Time Position Orientation Groundspeed Altitude Reporting Facility
EDT Latitude Longitude Course Direction KTS MPH feet Rate Location/Type
Sat 09:39:06 AM 33.9333 -118.4500 231° Southwest 181 208 1,400  Level Southern California TRACON
Sat 09:40:16 AM 33.8867 -118.5183 188° South 244 281 2,700 1,569 Climbing Los Angeles Center
Sat 09:41:16 AM 33.8197 -118.5292 178° South 254 292 4,800 2,350 Climbing Los Angeles Center
Sat 09:42:16 AM 33.7406 -118.5267 144° Southeast 273 314 7,400 2,200 Climbing Los Angeles Center
Sat 09:43:16 AM 33.6808 -118.4753 107° East 272 313 9,200 1,650 Climbing Los Angeles Center
Sat 09:44:16 AM 33.6556 -118.3772 96° East 245 282 10,700 1,400 Climbing Los Angeles Center
Sat 09:45:16 AM 33.6453 -118.2644 91° East 297 342 12,000 1,250 Climbing Los Angeles Center
Sat 09:46:16 AM 33.6431 -118.1372 90° East 345 397 13,200 1,350 Climbing Los Angeles Center
Sat 09:47:16 AM 33.6433 -118.0000 89° East 372 428 14,700 1,550 Climbing Los Angeles Center
Sat 09:48:16 AM 33.6453 -117.8628 91° East 399 459 16,300 1,600 Climbing Los Angeles Center
Sat 09:49:16 AM 33.6433 -117.7031 90° East 419 482 17,900 1,550 Climbing Los Angeles Center
Sat 09:50:16 AM 33.6431 -117.5558 89° East 426 490 19,400 1,450 Climbing Los Angeles Center
Sat 09:51:16 AM 33.6447 -117.4061 91° East 438 504 20,800 1,250 Climbing Los Angeles Center
Sat 09:52:16 AM 33.6419 -117.2539 90° East 444 511 21,900 950 Climbing Los Angeles Center
Sat 09:53:16 AM 33.6411 -117.1217 86° East 450 518 22,700 850 Climbing Los Angeles Center
Sat 09:54:16 AM 33.6506 -116.9597 77° East 462 532 23,600 1,100 Climbing Los Angeles Center
Sat 09:55:16 AM 33.6808 -116.8053 78° East 468 539 24,900 1,100 Climbing Los Angeles Center
Sat 09:56:16 AM 33.7089 -116.6456 77° East 473 544 25,800 900 Climbing Los Angeles Center
Sat 09:57:16 AM 33.7386 -116.4908 77° East 478 550 26,700 850 Climbing Los Angeles Center
Sat 09:58:16 AM 33.7681 -116.3311 77° East 484 557 27,500 850 Climbing Los Angeles Center
Sat 09:59:16 AM 33.7997 -116.1686 79° East 484 557 28,400 850 Climbing Los Angeles Center
Sat 10:00:16 AM 33.8247 -116.0061 79° East 484 557 29,200 800 Climbing Los Angeles Center
Sat 10:01:16 AM 33.8514 -115.8411 80° East 489 563 30,000 800 Climbing Los Angeles Center
Sat 10:02:16 AM 33.8761 -115.6758 78° East 494 568 30,800 700 Climbing Los Angeles Center
Sat 10:03:16 AM 33.9047 -115.5106 79° East 494 568 31,400 650 Climbing Los Angeles Center
Sat 10:04:16 AM 33.9308 -115.3450 79° East 494 568 32,100 700 Climbing Los Angeles Center
Sat 10:05:16 AM 33.9567 -115.1819 80° East 499 574 32,800 450 Climbing Los Angeles Center
Sat 10:06:16 AM 33.9806 -115.0239 79° East 492 566 33,000 100 Climbing Los Angeles Center
Sat 10:07:16 AM 34.0061 -114.8608 80° East 487 560 33,000  Level Los Angeles Center
Sat 10:08:16 AM 34.0294 -114.7000 80° East 487 560 33,000  Level Los Angeles Center
Sat 10:10:08 AM 34.0753 -114.3986 81° East 482 555 33,000  Level Albuquerque Center
Sat 10:11:08 AM 34.0978 -114.2278 81° East 497 572 33,000  Level Albuquerque Center
Sat 10:12:08 AM 34.1197 -114.0614 85° East 502 578 33,000  Level Albuquerque Center
Sat 10:13:08 AM 34.1342 -113.8769 84° East 502 578 33,000  Level Albuquerque Center
Sat 10:14:08 AM 34.1497 -113.7050 84° East 497 572 33,000  Level Albuquerque Center
Sat 10:15:08 AM 34.1650 -113.5306 85° East 502 578 33,000  Level Albuquerque Center
Sat 10:16:08 AM 34.1781 -113.3581 86° East 512 589 33,000  Level Albuquerque Center
Sat 10:17:08 AM 34.1886 -113.1833 85° East 519 597 33,000  Level Albuquerque Center
Sat 10:18:08 AM 34.2014 -113.0083 84° East 519 597 33,000  Level Albuquerque Center
Sat 10:19:08 AM 34.2147 -112.8561 85° East 513 590 33,000  Level Albuquerque Center
Sat 10:20:08 AM 34.2267 -112.6811 85° East 519 597 33,000  Level Albuquerque Center
Sat 10:21:08 AM 34.2392 -112.4936 85° East 514 592 33,000 -50 Level Albuquerque Center
Sat 10:22:08 AM 34.2506 -112.3208 85° East 514 592 32,900 -50 Descending Albuquerque Center
Sat 10:23:08 AM 34.2639 -112.1483 85° East 514 592 32,900 50 Level Albuquerque Center
Sat 10:24:08 AM 34.2747 -111.9806 86° East 514 592 33,000 50 Climbing Albuquerque Center
Sat 10:25:08 AM 34.2853 -111.8075 86° East 514 592 33,000  Level Albuquerque Center
Sat 10:26:08 AM 34.2958 -111.6347 85° East 514 592 33,000  Level Albuquerque Center
Sat 10:27:08 AM 34.3081 -111.4619 87° East 514 592 33,000  Level Albuquerque Center
Sat 10:28:08 AM 34.3161 -111.2889 86° East 521 600 33,000  Level Albuquerque Center
Sat 10:29:08 AM 34.3258 -111.1158 84° East 521 600 33,000  Level Albuquerque Center
Sat 10:30:08 AM 34.3389 -110.9603 87° East 516 594 33,000  Level Albuquerque Center
Sat 10:31:08 AM 34.3461 -110.7872 87° East 516 594 33,000  Level Albuquerque Center
Sat 10:32:08 AM 34.3556 -110.5964 87° East 516 594 33,000  Level Albuquerque Center
Sat 10:33:08 AM 34.3642 -110.4231 86° East 516 594 33,000  Level Albuquerque Center
Sat 10:34:08 AM 34.3747 -110.2497 86° East 516 594 33,000  Level Albuquerque Center
Sat 10:35:08 AM 34.3847 -110.0942 88° East 516 594 33,000  Level Albuquerque Center
Sat 10:36:08 AM 34.3911 -109.9031 87° East 516 594 33,000  Level Albuquerque Center
Sat 10:37:08 AM 34.3989 -109.7297 87° East 516 594 33,000  Level Albuquerque Center
Sat 10:38:08 AM 34.4064 -109.5536 86° East 511 588 33,000  Level Albuquerque Center
Sat 10:39:08 AM 34.4156 -109.3753 87° East 519 597 33,000  Level Albuquerque Center
Sat 10:40:08 AM 34.4225 -109.2017 82° East 519 597 33,000  Level Albuquerque Center
Sat 10:41:08 AM 34.4419 -109.0283 82° East 513 590 33,000  Level Albuquerque Center
Sat 10:42:08 AM 34.4631 -108.8550 83° East 518 596 33,000  Level Albuquerque Center
Sat 10:43:08 AM 34.4817 -108.6814 81° East 524 603 33,000  Level Albuquerque Center
Sat 10:44:08 AM 34.5044 -108.5053 81° East 524 603 33,000  Level Albuquerque Center
Sat 10:45:08 AM 34.5267 -108.3367 84° East 519 597 33,000  Level Albuquerque Center
Sat 10:46:08 AM 34.5428 -108.1578 80° East 519 597 33,000  Level Albuquerque Center
Sat 10:47:08 AM 34.5667 -107.9842 83° East 524 603 33,000  Level Albuquerque Center
Sat 10:48:08 AM 34.5842 -107.8103 81° East 519 597 33,000  Level Albuquerque Center
Sat 10:49:08 AM 34.6056 -107.6361 82° East 526 605 33,000  Level Albuquerque Center
Sat 10:50:08 AM 34.6225 -107.4797 83° East 521 600 33,000  Level Albuquerque Center
Sat 10:51:08 AM 34.6433 -107.2856 82° East 524 603 33,000  Level Albuquerque Center
Sat 10:52:08 AM 34.6639 -107.1111 83° East 524 603 33,000  Level Albuquerque Center
Sat 10:53:08 AM 34.6822 -106.9319 81° East 524 603 33,000 50 Level Albuquerque Center
Sat 10:54:08 AM 34.7044 -106.7547 83° East 524 603 33,100  Climbing Albuquerque Center
Sat 10:55:08 AM 34.7203 -106.6006 82° East 524 603 33,000 -50 Descending Albuquerque Center
Sat 10:56:08 AM 34.7400 -106.4208 82° East 524 603 33,000  Level Albuquerque Center
Sat 10:57:08 AM 34.7592 -106.2464 83° East 518 596 33,000  Level Albuquerque Center
Sat 10:58:08 AM 34.7764 -106.0717 82° East 523 602 33,000  Level Albuquerque Center
Sat 10:59:08 AM 34.7953 -105.8967 84° East 518 596 33,000  Level Albuquerque Center
Sat 11:00:08 AM 34.8094 -105.7219 83° East 521 600 33,000  Level Albuquerque Center
Sat 11:01:08 AM 34.8278 -105.5419 83° East 521 600 33,000  Level Albuquerque Center
Sat 11:02:08 AM 34.8478 -105.3517 84° East 521 600 33,000  Level Albuquerque Center
Sat 11:03:08 AM 34.8633 -105.1742 84° East 526 605 33,000  Level Albuquerque Center
Sat 11:04:08 AM 34.8789 -104.9964 83° East 520 598 33,000  Level Albuquerque Center
Sat 11:05:08 AM 34.8961 -104.8211 84° East 525 604 33,000  Level Albuquerque Center
Sat 11:06:08 AM 34.9111 -104.6433 84° East 525 604 33,000 50 Level Albuquerque Center
Sat 11:07:08 AM 34.9256 -104.4631 84° East 525 604 33,100  Climbing Albuquerque Center
Sat 11:08:08 AM 34.9419 -104.2825 85° East 531 611 33,000 -50 Descending Albuquerque Center
Sat 11:09:08 AM 34.9558 -104.1022 83° East 531 611 33,000  Level Albuquerque Center
Sat 11:10:08 AM 34.9739 -103.9214 85° East 536 617 33,000  Level Albuquerque Center
Sat 11:11:08 AM 34.9872 -103.7408 83° East 541 623 33,000  Level Albuquerque Center
Sat 11:12:08 AM 35.0047 -103.5575 85° East 541 623 33,000  Level Albuquerque Center
Sat 11:13:08 AM 35.0175 -103.3769 84° East 541 623 33,000 100 Level Albuquerque Center
Sat 11:14:08 AM 35.0342 -103.1958 86° East 536 617 33,200 450 Climbing Albuquerque Center
Sat 11:15:08 AM 35.0447 -103.0178 84° East 541 623 33,900 400 Climbing Albuquerque Center
Sat 11:16:08 AM 35.0575 -102.8547 85° East 536 617 34,000 50 Climbing Albuquerque Center
Sat 11:17:08 AM 35.0714 -102.6739 85° East 536 617 34,000  Level Albuquerque Center
Sat 11:18:08 AM 35.0850 -102.4903 85° East 536 617 34,000  Level Albuquerque Center
Sat 11:19:08 AM 35.0964 -102.3119 85° East 541 623 34,000  Level Albuquerque Center
Sat 11:20:08 AM 35.1094 -102.1308 79° East 541 623 34,000  Level Albuquerque Center
Sat 11:21:08 AM 35.1389 -101.9511 76° East 541 623 34,000  Level Albuquerque Center
Sat 11:22:08 AM 35.1747 -101.7783 75° East 534 615 34,000  Level Albuquerque Center
Sat 11:23:08 AM 35.2142 -101.5950 77° East 544 626 34,000  Level Albuquerque Center
Sat 11:24:08 AM 35.2472 -101.4197 74° East 544 626 34,000 50 Level Albuquerque Center
Sat 11:25:08 AM 35.2919 -101.2281 75° East 534 615 34,100 500 Climbing Albuquerque Center
Sat 11:26:08 AM 35.3308 -101.0547 75° East 528 608 35,000 450 Climbing Albuquerque Center
Sat 11:27:08 AM 35.3681 -100.8886 86° East 512 589 35,000  Level Albuquerque Center
Sat 11:28:08 AM 35.3769 -100.7097 89° East 512 589 35,000  Level Albuquerque Center
Sat 11:29:41 AM 35.3819 -100.4383 87° East 542 624 35,000  Level Fort Worth Center
Sat 11:30:41 AM 35.3883 -100.2656 89° East 529 609 35,000  Level Fort Worth Center
Sat 11:31:41 AM 35.3900 -100.0872 88° East 521 600 35,000  Level Fort Worth Center
Sat 11:32:41 AM 35.3958 -99.9117 89° East 513 590 35,000  Level Fort Worth Center
Sat 11:33:41 AM 35.3992 -99.7386 89° East 513 590 35,000  Level Fort Worth Center
Sat 11:34:41 AM 35.4022 -99.5656 89° East 513 590 35,000  Level Fort Worth Center
Sat 11:35:41 AM 35.4050 -99.3925 88° East 513 590 35,000  Level Fort Worth Center
Sat 11:36:41 AM 35.4097 -99.2169 89° East 513 590 35,000  Level Fort Worth Center
Sat 11:37:41 AM 35.4122 -99.0539 89° East 519 597 35,000  Level Fort Worth Center
Sat 11:38:41 AM 35.4142 -98.8781 90° East 519 597 35,000  Level Fort Worth Center
Sat 11:39:41 AM 35.4142 -98.7050 89° East 514 592 35,000  Level Fort Worth Center
Sat 11:40:41 AM 35.4178 -98.5292 89° East 514 592 35,000  Level Fort Worth Center
Sat 11:41:41 AM 35.4194 -98.3433 89° East 508 585 35,000  Level Fort Worth Center
Sat 11:42:41 AM 35.4206 -98.1728 90° East 508 585 35,000 -50 Level Fort Worth Center
Sat 11:43:41 AM 35.4214 -97.9994 90° East 502 578 34,900 -50 Descending Fort Worth Center
Sat 11:44:41 AM 35.4222 -97.8289 89° East 502 578 34,900 50 Level Fort Worth Center
Sat 11:45:41 AM 35.4247 -97.6939 90° East 497 572 35,000 50 Climbing Fort Worth Center
Sat 11:46:41 AM 35.4250 -97.4797 90° East 505 581 35,000  Level Fort Worth Center
Sat 11:47:41 AM 35.4250 -97.3117 91° East 511 588 35,000  Level Fort Worth Center
Sat 11:48:41 AM 35.4225 -97.1358 90° East 511 588 35,000  Level Fort Worth Center
Sat 11:49:41 AM 35.4222 -96.9628 89° East 511 588 35,000  Level Fort Worth Center
Sat 11:50:41 AM 35.4236 -96.7944 91° East 505 581 35,000  Level Fort Worth Center
Sat 11:51:41 AM 35.4206 -96.6214 90° East 505 581 35,000  Level Fort Worth Center
Sat 11:52:41 AM 35.4214 -96.4686 91° East 505 581 35,000  Level Fort Worth Center
Sat 11:53:41 AM 35.4181 -96.2928 91° East 505 581 35,000  Level Fort Worth Center
Sat 11:54:41 AM 35.4164 -96.1197 90° East 505 581 35,000  Level Fort Worth Center
Sat 11:56:22 AM 35.4158 -95.8089 91° East 505 581 35,000  Level Memphis Center
Sat 11:57:22 AM 35.4131 -95.6331 90° East 505 581 35,000  Level Memphis Center
Sat 11:58:22 AM 35.4119 -95.4597 91° East 510 587 35,000  Level Memphis Center
Sat 11:59:22 AM 35.4086 -95.2861 81° East 510 587 35,000  Level Memphis Center
Sat 12:00:22 PM 35.4297 -95.1142 81° East 510 587 35,000  Level Memphis Center
Sat 12:01:22 PM 35.4506 -94.9472 80° East 510 587 35,000 -50 Level Memphis Center
Sat 12:02:22 PM 35.4736 -94.7778 81° East 505 581 34,900  Descending Memphis Center
Sat 12:03:22 PM 35.4939 -94.6106 81° East 500 575 35,000 50 Climbing Memphis Center
Sat 12:04:22 PM 35.5164 -94.4408 83° East 500 575 35,000  Level Memphis Center
Sat 12:05:22 PM 35.5317 -94.2833 79° East 505 581 35,000  Level Memphis Center
Sat 12:06:22 PM 35.5581 -94.1111 82° East 505 581 35,000  Level Memphis Center
Sat 12:07:22 PM 35.5775 -93.9433 83° East 500 575 35,000  Level Memphis Center
Sat 12:08:22 PM 35.5947 -93.7756 81° East 500 575 35,000  Level Memphis Center
Sat 12:09:22 PM 35.6158 -93.6056 81° East 500 575 35,000  Level Memphis Center
Sat 12:10:22 PM 35.6369 -93.4350 82° East 500 575 35,000  Level Memphis Center
Sat 12:11:22 PM 35.6556 -93.2697 82° East 500 575 35,000  Level Memphis Center
Sat 12:12:22 PM 35.6764 -93.0814 82° East 500 575 35,000  Level Memphis Center
Sat 12:13:22 PM 35.6947 -92.9106 83° East 500 575 35,000  Level Memphis Center
Sat 12:14:22 PM 35.7125 -92.7425 83° East 500 575 35,000 -300 Level Memphis Center
Sat 12:15:22 PM 35.7303 -92.5742 82° East 500 575 34,400 -800 Descending Memphis Center
Sat 12:16:22 PM 35.7497 -92.4058 83° East 500 575 33,400 -1,000 Descending Memphis Center
Sat 12:17:22 PM 35.7669 -92.2425 83° East 500 575 32,400 -1,450 Descending Memphis Center
Sat 12:18:22 PM 35.7839 -92.0767 83° East 495 570 30,500 -1,950 Descending Memphis Center
Sat 12:19:22 PM 35.7986 -91.9208 85° East 483 556 28,500 -1,950 Descending Memphis Center
Sat 12:20:22 PM 35.8086 -91.7700 105° East 458 527 26,600 -1,900 Descending Memphis Center
Sat 12:21:22 PM 35.7769 -91.6261 115° Southeast 432 497 24,700 -2,000 Descending Memphis Center
Sat 12:22:22 PM 35.7261 -91.4925 115° Southeast 421 484 22,600 -1,950 Descending Memphis Center
Sat 12:23:22 PM 35.6792 -91.3667 113° Southeast 421 484 20,800 -1,950 Descending Memphis Center
Sat 12:24:22 PM 35.6364 -91.2433 115° Southeast 396 456 18,700 -2,050 Descending Memphis Center
Sat 12:25:22 PM 35.5911 -91.1231 115° Southeast 391 450 16,700 -2,000 Descending Memphis Center
Sat 12:26:22 PM 35.5481 -91.0078 114° Southeast 378 435 14,700 -2,050 Descending Memphis Center
Sat 12:27:22 PM 35.5069 -90.8953 115° Southeast 369 425 12,600 -1,750 Descending Memphis Center
Sat 12:28:22 PM 35.4656 -90.7853 117° Southeast 358 412 11,200 -1,100 Descending Memphis Center
Sat 12:29:22 PM 35.4283 -90.6958 112° Southeast 348 400 10,400 -650 Descending Memphis Center
Sat 12:30:22 PM 35.3931 -90.5914 104° East 334 384 9,900 -550 Descending Memphis Center
Sat 12:31:22 PM 35.3744 -90.4997 106° East 298 343 9,300 -800 Descending Memphis Center
Sat 12:32:22 PM 35.3536 -90.4106 105° East 275 316 8,300 -1,000 Descending Memphis Center
Sat 12:33:22 PM 35.3347 -90.3214 104° East 269 310 7,300 -1,050 Descending Memphis Center
Sat 12:34:22 PM 35.3161 -90.2272 106° East 263 303 6,200 -1,000 Descending Memphis Center
Sat 12:35:22 PM 35.2950 -90.1383 103° East 261 300 5,300 -950 Descending Memphis Center
Sat 12:36:22 PM 35.2781 -90.0519 105° East 261 300 4,300 -914 Descending Memphis Center
Sat 12:37:07 PM 35.2667 -90.0000 168° South 244 281 3,700 -923 Descending Anchorage Center
Sat 12:38:06 PM 35.2000 -89.9833 180° South 220 253 2,700 -788 Descending Anchorage Center
Sat 12:39:24 PM 35.1333 -89.9833 180° South 211 243 1,900 -662 Descending Anchorage Center
Sat 12:40:22 PM 35.1000 -89.9833 180° South 144 166 1,200 -718 Descending Anchorage Center
Sat 12:41:21 PM 35.0500 -89.9833 144° Southeast 141 162 500 -712 Descending Anchorage Center
Sat 12:48:32 PM 34.2837 -89.3177 325° Northwest  Level Estimated
Sat 12:49:32 PM 35.0333 -89.9667 318° Northwest  Level FlightAware Approximate
Sat 12:50:32 PM 35.1307 -90.0740 138° Southeast  Level Estimated
Sat 12:51:32 PM 35.0333 -89.9667 318° Northwest  Level FlightAware Approximate
Sat 12:52:32 PM 35.1307 -90.0740 138° Southeast  Level Estimated
Sat 12:53:32 PM 35.0333 -89.9667 318° Northwest  Level FlightAware Approximate
Sat 12:54:32 PM 35.1307 -90.0740 138° Southeast  Level Estimated
Sat 12:55:32 PM 35.0333 -89.9667 318° Northwest  Level FlightAware Approximate
Sat 12:56:32 PM 35.1307 -90.0740 138° Southeast  Level Estimated
Sat 12:57:32 PM 35.0333 -89.9667 318° Northwest  Level FlightAware Approximate
Sat 12:58:32 PM 35.1307 -90.0740 138° Southeast  Level Estimated
Sat 12:59:32 PM 35.0333 -89.9667 318° Northwest  Level FlightAware Approximate
Sat 01:00:32 PM 35.1307 -90.0740 138° Southeast  Level Estimated
Sat 01:01:32 PM 35.0333 -89.9667 138° Southeast  Level FlightAware Approximate

Login

Don't have an account? Register now (free) for customized features, flight alerts, and more!